createdAt,value
2023-04-16T00:02:04.817Z,6.65
2023-04-16T00:07:06.129Z,6.70
2023-04-16T00:12:07.379Z,6.40
2023-04-16T00:17:09.078Z,6.27
2023-04-16T00:22:10.372Z,6.88
2023-04-16T00:27:11.759Z,6.50
2023-04-16T00:32:13.222Z,6.33
2023-04-16T00:37:14.507Z,6.45
2023-04-16T00:42:15.997Z,7.47
2023-04-16T00:47:17.454Z,7.32
2023-04-16T00:52:18.728Z,7.35
2023-04-16T00:57:21.031Z,7.70
2023-04-16T01:02:22.450Z,7.22
2023-04-16T01:07:23.781Z,6.80
2023-04-16T01:12:25.021Z,7.30
2023-04-16T01:17:26.322Z,7.35
2023-04-16T01:22:28.236Z,8.13
2023-04-16T01:27:29.498Z,6.97
2023-04-16T01:32:34.512Z,7.70
2023-04-16T01:37:35.918Z,7.53
2023-04-16T01:42:37.836Z,7.53
2023-04-16T01:47:39.338Z,7.20
2023-04-16T01:52:40.585Z,7.45
2023-04-16T01:57:41.869Z,6.87
2023-04-16T02:02:43.294Z,7.55
2023-04-16T02:07:44.634Z,8.07
2023-04-16T02:12:46.268Z,7.53
2023-04-16T02:17:48.774Z,8.48
2023-04-16T02:22:50.201Z,8.60
2023-04-16T02:27:51.540Z,8.10
2023-04-16T02:32:52.897Z,7.93
2023-04-16T02:37:54.390Z,8.10
2023-04-16T02:42:55.707Z,8.75
2023-04-16T02:47:57.098Z,8.90
2023-04-16T02:52:58.472Z,9.18
2023-04-16T02:57:59.767Z,9.00
2023-04-16T03:03:01.415Z,9.20
2023-04-16T03:08:05.736Z,9.27
2023-04-16T03:13:07.129Z,9.13
2023-04-16T03:18:08.379Z,9.05
2023-04-16T03:23:09.658Z,8.48
2023-04-16T03:28:10.924Z,9.37
2023-04-16T03:33:12.160Z,9.50
2023-04-16T03:38:13.476Z,9.80
2023-04-16T03:43:14.768Z,9.50
2023-04-16T03:48:16.352Z,8.98
2023-04-16T03:53:17.731Z,8.73
2023-04-16T03:58:19.239Z,8.95
2023-04-16T04:03:20.872Z,8.93
2023-04-16T04:08:22.253Z,8.52
2023-04-16T04:13:23.601Z,8.88
2023-04-16T04:18:24.907Z,9.30
2023-04-16T04:23:26.193Z,8.93
2023-04-16T04:28:27.452Z,8.50
2023-04-16T04:33:28.775Z,8.60
2023-04-16T04:38:30.414Z,9.43
2023-04-16T04:43:31.793Z,8.67
2023-04-16T04:48:33.061Z,8.07
2023-04-16T04:53:34.565Z,8.73
2023-04-16T04:58:35.967Z,8.52
2023-04-16T05:03:40.178Z,8.13
2023-04-16T05:08:41.590Z,8.23
2023-04-16T05:13:42.847Z,8.45
2023-04-16T05:18:45.326Z,8.20
2023-04-16T05:23:46.624Z,8.43
2023-04-16T05:28:47.935Z,8.60
2023-04-16T05:33:49.334Z,7.83
2023-04-16T05:38:50.680Z,7.32
2023-04-16T05:43:51.963Z,8.37
2023-04-16T05:48:53.259Z,7.93
2023-04-16T05:53:54.605Z,7.80
2023-04-16T05:58:55.888Z,7.70
2023-04-16T06:03:57.245Z,7.32
2023-04-16T06:08:58.615Z,6.97
2023-04-16T06:13:59.862Z,7.10
2023-04-16T06:19:01.306Z,7.35
2023-04-16T06:24:02.612Z,7.67
2023-04-16T06:29:03.897Z,7.43
2023-04-16T06:34:05.285Z,6.83
2023-04-16T06:39:06.674Z,7.00
2023-04-16T06:44:10.991Z,7.53
2023-04-16T06:49:12.366Z,7.40
2023-04-16T06:54:13.647Z,7.50
2023-04-16T06:59:14.903Z,7.20
2023-04-16T07:04:16.274Z,6.70
2023-04-16T07:09:18.006Z,6.80
2023-04-16T07:14:19.375Z,6.47
2023-04-16T07:19:21.050Z,6.65
2023-04-16T07:24:22.338Z,6.67
2023-04-16T07:29:23.674Z,6.18
2023-04-16T07:34:24.976Z,7.43
2023-04-16T07:39:26.354Z,6.33
2023-04-16T07:44:27.762Z,6.60
2023-04-16T07:49:29.066Z,5.87
2023-04-16T07:54:30.478Z,5.50
2023-04-16T07:59:31.749Z,5.55
2023-04-16T08:04:33.405Z,5.27
2023-04-16T08:09:38.171Z,6.22
2023-04-16T08:14:41.180Z,6.10
2023-04-16T08:19:42.909Z,6.10
2023-04-16T08:24:51.419Z,6.68
2023-04-16T08:29:52.718Z,5.53
2023-04-16T08:34:57.162Z,5.80
2023-04-16T08:39:58.518Z,6.33
2023-04-16T08:45:06.273Z,6.55
2023-04-16T08:50:08.788Z,6.05
2023-04-16T08:55:12.739Z,7.23
2023-04-16T09:00:14.537Z,6.20
2023-04-16T09:05:25.442Z,6.77
2023-04-16T09:10:27.031Z,6.68
2023-04-16T09:15:29.387Z,6.50
2023-04-16T09:20:30.873Z,6.90
2023-04-16T09:25:35.716Z,6.28
2023-04-16T09:30:37.545Z,5.70
2023-04-16T09:35:46.520Z,7.00
2023-04-16T09:40:47.893Z,6.20
2023-04-16T09:45:53.233Z,6.53
2023-04-16T09:50:54.594Z,6.68
2023-04-16T09:55:56.840Z,6.73
2023-04-16T10:01:01.927Z,6.47
2023-04-16T10:06:29.230Z,6.72
2023-04-16T10:11:30.811Z,6.20
2023-04-16T10:16:32.323Z,6.53
2023-04-16T10:21:34.492Z,6.07
2023-04-16T10:26:36.090Z,6.47
2023-04-16T10:31:37.656Z,5.88
2023-04-16T10:36:40.101Z,5.90
2023-04-16T10:41:42.491Z,5.88
2023-04-16T10:46:44.721Z,6.60
2023-04-16T10:51:56.333Z,7.55
2023-04-16T10:57:04.552Z,8.60
2023-04-16T11:02:12.972Z,7.83
2023-04-16T11:07:19.182Z,5.78
2023-04-16T11:12:29.853Z,5.53
2023-04-16T11:17:54.259Z,5.65
2023-04-16T11:22:56.600Z,5.70
2023-04-16T11:28:01.379Z,6.67
2023-04-16T11:33:03.296Z,7.70
2023-04-16T11:38:06.287Z,5.63
2023-04-16T11:43:15.661Z,5.57
2023-04-16T11:48:16.969Z,5.80
2023-04-16T11:53:18.305Z,5.37
2023-04-16T11:58:20.767Z,5.93
2023-04-16T12:03:46.106Z,5.50
2023-04-16T12:08:47.746Z,5.68
2023-04-16T12:14:08.208Z,5.10
2023-04-16T12:19:11.576Z,5.60
2023-04-16T12:24:14.028Z,5.18
2023-04-16T12:29:15.795Z,5.63
2023-04-16T12:34:17.664Z,5.82
2023-04-16T12:39:19.012Z,5.32
2023-04-16T12:44:20.717Z,4.97
2023-04-16T12:49:22.008Z,4.88
2023-04-16T12:54:23.315Z,5.10
2023-04-16T12:59:24.652Z,4.80
2023-04-16T13:04:26.208Z,4.90
2023-04-16T13:09:28.491Z,4.90
2023-04-16T13:14:29.847Z,5.97
2023-04-16T13:19:35.356Z,5.67
2023-04-16T13:24:36.723Z,5.80
2023-04-16T13:29:38.078Z,4.85
2023-04-16T13:34:39.448Z,5.10
2023-04-16T13:39:40.873Z,7.18
2023-04-16T13:44:42.636Z,6.40
2023-04-16T13:49:43.948Z,5.70
2023-04-16T13:54:45.248Z,5.00
2023-04-16T13:59:46.855Z,6.23
2023-04-16T14:04:48.647Z,5.60
2023-04-16T14:09:49.971Z,8.10
2023-04-16T14:14:51.289Z,6.20
2023-04-16T14:19:52.589Z,6.18
2023-04-16T14:24:53.851Z,5.50
2023-04-16T14:29:55.094Z,6.10
2023-04-16T14:34:56.465Z,6.73
2023-04-16T14:39:57.703Z,6.60
2023-04-16T14:44:58.985Z,6.35
2023-04-16T14:50:00.920Z,7.03
2023-04-16T14:55:02.388Z,6.30
2023-04-16T15:00:07.842Z,6.00
2023-04-16T15:05:10.403Z,6.85
2023-04-16T15:10:12.583Z,6.47
2023-04-16T15:15:13.899Z,6.57
2023-04-16T15:20:15.676Z,7.25
2023-04-16T15:25:17.118Z,7.03
2023-04-16T15:30:18.633Z,8.30
2023-04-16T15:35:20.084Z,8.57
2023-04-16T15:40:21.382Z,12.00
2023-04-16T15:45:22.689Z,8.88
2023-04-16T15:50:25.192Z,18.77
2023-04-16T15:55:26.487Z,14.40
2023-04-16T16:00:27.967Z,11.23
2023-04-16T16:05:29.254Z,11.13
2023-04-16T16:10:30.546Z,9.90
2023-04-16T16:15:32.166Z,11.23
2023-04-16T16:20:34.451Z,11.35
2023-04-16T16:25:37.755Z,15.98
2023-04-16T16:30:41.077Z,12.23
2023-04-16T16:35:42.446Z,11.15
2023-04-16T16:40:43.821Z,12.40
2023-04-16T16:45:45.217Z,12.00
2023-04-16T16:50:46.519Z,12.68
2023-04-16T16:55:47.832Z,12.80
2023-04-16T17:00:49.170Z,12.18
2023-04-16T17:05:50.646Z,12.10
2023-04-16T17:10:52.230Z,12.50
2023-04-16T17:15:53.548Z,12.93
2023-04-16T17:20:54.803Z,14.00
2023-04-16T17:25:56.385Z,13.93
2023-04-16T17:30:57.673Z,14.00
2023-04-16T17:35:58.961Z,14.15
2023-04-16T17:41:02.281Z,14.40
2023-04-16T17:46:03.621Z,14.20
2023-04-16T17:51:11.632Z,20.10
2023-04-16T17:56:13.524Z,15.90
2023-04-16T18:01:14.887Z,14.60
2023-04-16T18:06:16.237Z,17.40
2023-04-16T18:11:17.568Z,15.67
2023-04-16T18:16:18.833Z,16.13
2023-04-16T18:21:20.295Z,16.10
2023-04-16T18:26:22.949Z,17.92
2023-04-16T18:31:24.491Z,17.70
2023-04-16T18:36:26.753Z,16.00
2023-04-16T18:41:28.442Z,18.95
2023-04-16T18:46:29.790Z,20.80
2023-04-16T18:51:31.619Z,22.98
2023-04-16T18:56:32.954Z,19.00
2023-04-16T19:01:34.266Z,18.23
2023-04-16T19:06:35.669Z,16.90
2023-04-16T19:11:37.125Z,17.33
2023-04-16T19:16:38.817Z,15.43
2023-04-16T19:21:40.203Z,15.82
2023-04-16T19:26:41.627Z,14.60
2023-04-16T19:31:42.930Z,15.40
2023-04-16T19:36:45.218Z,15.03
2023-04-16T19:41:46.535Z,16.17
2023-04-16T19:46:47.826Z,18.27
2023-04-16T19:51:49.444Z,16.53
2023-04-16T19:56:53.772Z,17.25
2023-04-16T20:01:55.208Z,16.07
2023-04-16T20:06:56.530Z,15.40
2023-04-16T20:11:57.933Z,14.88
2023-04-16T20:17:04.194Z,14.90
2023-04-16T20:22:06.559Z,14.85
2023-04-16T20:27:07.858Z,14.37
2023-04-16T20:32:09.263Z,14.10
2023-04-16T20:37:10.567Z,14.70
2023-04-16T20:42:12.097Z,16.40
2023-04-16T20:47:14.830Z,16.00
2023-04-16T20:52:16.623Z,14.97
2023-04-16T20:57:20.257Z,15.23
2023-04-16T21:02:21.928Z,14.20
2023-04-16T21:07:23.461Z,15.00
2023-04-16T21:12:24.708Z,15.73
2023-04-16T21:17:26.034Z,15.47
2023-04-16T21:22:27.341Z,15.50
2023-04-16T21:27:28.617Z,16.83
2023-04-16T21:32:29.928Z,15.50
2023-04-16T21:37:31.273Z,15.02
2023-04-16T21:42:33.113Z,15.43
2023-04-16T21:47:34.416Z,15.30
2023-04-16T21:52:40.263Z,15.30
2023-04-16T21:57:41.834Z,15.23
2023-04-16T22:02:43.440Z,14.30
2023-04-16T22:07:44.942Z,16.47
2023-04-16T22:12:46.480Z,16.60
2023-04-16T22:17:48.422Z,14.80
2023-04-16T22:22:49.890Z,15.67
2023-04-16T22:27:51.145Z,16.20
2023-04-16T22:32:52.447Z,15.23
2023-04-16T22:37:53.924Z,15.40
2023-04-16T22:42:55.379Z,15.45
2023-04-16T22:47:56.634Z,15.27
2023-04-16T22:53:00.430Z,16.77
2023-04-16T22:58:01.827Z,17.03
2023-04-16T23:03:03.202Z,15.73
2023-04-16T23:08:04.616Z,15.63
2023-04-16T23:13:05.948Z,15.97
2023-04-16T23:18:07.617Z,16.00
2023-04-16T23:23:08.963Z,14.53
2023-04-16T23:28:10.261Z,15.50
2023-04-16T23:33:11.584Z,15.93
2023-04-16T23:38:12.912Z,15.30
2023-04-16T23:43:14.181Z,15.80
2023-04-16T23:48:15.512Z,16.00
2023-04-16T23:53:17.235Z,15.23
2023-04-16T23:58:18.744Z,15.55
